Time;durP1;ratioP1;P1;durP2;ratioP2;P2;SDS_P1;SDS_P2;PMS_P1;PMS_P2;Temp;Humidity;BMP_temperature;BMP_pressure;BME280_temperature;BME280_humidity;BME280_pressure;Samples;Min_cycle;Max_cycle;Signal;HPM_P1;HPM_P2
2022/07/17 00:00:42;;;;;;;5.30;2.20;;;11.40;99.90;;;;;;4987726;28;20086;-91
2022/07/17 00:03:14;;;;;;;3.28;1.98;;;11.30;99.90;;;;;;4993358;28;20050;-91
2022/07/17 00:05:40;;;;;;;6.15;2.10;;;11.30;99.90;;;;;;4994395;28;20054;-90
2022/07/17 00:08:06;;;;;;;6.13;1.95;;;11.30;99.90;;;;;;4986406;28;20478;-92
2022/07/17 00:10:33;;;;;;;3.28;2.13;;;11.30;99.90;;;;;;4976483;28;20050;-91
2022/07/17 00:12:59;;;;;;;3.63;2.15;;;11.30;99.90;;;;;;4939085;29;20090;-91
2022/07/17 00:15:26;;;;;;;5.05;2.05;;;11.30;99.90;;;;;;4960836;28;20565;-85
2022/07/17 00:17:52;;;;;;;3.65;1.80;;;11.20;99.90;;;;;;4973088;28;20193;-85
2022/07/17 00:20:18;;;;;;;2.92;2.08;;;11.20;99.90;;;;;;4955568;28;20133;-85
2022/07/17 00:22:43;;;;;;;3.20;2.38;;;11.20;99.90;;;;;;4960548;28;20050;-88
2022/07/17 00:25:12;;;;;;;7.40;2.38;;;11.20;99.90;;;;;;4939692;29;20411;-92
2022/07/17 00:27:38;;;;;;;6.45;2.38;;;11.20;99.90;;;;;;4974584;28;20050;-89
2022/07/17 00:30:04;;;;;;;5.75;2.22;;;11.20;99.90;;;;;;4944159;28;20086;-91
2022/07/17 00:32:30;;;;;;;3.92;2.25;;;11.10;99.90;;;;;;4958263;28;20141;-91
2022/07/17 00:34:55;;;;;;;5.93;2.20;;;11.10;99.90;;;;;;4977194;28;20097;-91
2022/07/17 00:37:21;;;;;;;2.38;2.15;;;11.10;99.90;;;;;;4958505;28;20431;-90
2022/07/17 00:39:47;;;;;;;5.57;2.40;;;11.10;99.90;;;;;;4971908;28;20133;-92
2022/07/17 00:42:13;;;;;;;6.68;2.60;;;11.10;99.90;;;;;;4945333;28;20047;-91
2022/07/17 00:44:42;;;;;;;13.57;2.75;;;11.10;99.90;;;;;;4971882;28;20403;-91
2022/07/17 00:47:15;;;;;;;5.45;2.28;;;11.00;99.90;;;;;;4944354;28;20074;-92
2022/07/17 00:49:41;;;;;;;4.87;2.33;;;11.00;99.90;;;;;;4951576;28;20533;-91
2022/07/17 00:52:07;;;;;;;6.28;2.53;;;11.00;99.90;;;;;;4958064;28;20048;-90
2022/07/17 00:54:37;;;;;;;4.00;2.15;;;11.00;99.90;;;;;;4942860;28;20050;-92
2022/07/17 00:57:05;;;;;;;6.55;2.38;;;10.90;99.90;;;;;;4973941;28;20038;-90
2022/07/17 00:59:32;;;;;;;6.90;2.70;;;10.90;99.90;;;;;;4958381;28;20361;-91
2022/07/17 01:01:58;;;;;;;3.42;2.15;;;10.90;99.90;;;;;;4957786;28;20043;-92
2022/07/17 01:04:24;;;;;;;3.83;2.40;;;10.90;99.90;;;;;;4966815;28;20113;-91
2022/07/17 01:06:49;;;;;;;4.00;2.30;;;10.90;99.90;;;;;;4957704;28;20105;-91
2022/07/17 01:09:15;;;;;;;6.97;2.38;;;10.90;99.90;;;;;;4966312;28;20049;-91
2022/07/17 01:11:41;;;;;;;5.65;2.17;;;10.80;99.90;;;;;;4975689;28;20063;-92
2022/07/17 01:14:07;;;;;;;10.90;2.40;;;10.80;99.90;;;;;;4949783;28;20101;-90
2022/07/17 01:16:32;;;;;;;3.83;2.50;;;10.80;99.90;;;;;;4951842;28;20047;-91
2022/07/17 01:18:58;;;;;;;4.50;1.90;;;10.80;99.90;;;;;;4957607;28;20100;-91
2022/07/17 01:21:24;;;;;;;6.22;2.65;;;10.90;99.90;;;;;;4942076;28;20117;-91
2022/07/17 01:23:50;;;;;;;4.50;2.40;;;10.90;99.90;;;;;;4973959;28;20094;-91
2022/07/17 01:26:15;;;;;;;5.10;2.65;;;10.80;99.90;;;;;;4957524;28;20083;-90
2022/07/17 01:28:41;;;;;;;3.15;1.80;;;10.70;99.90;;;;;;4973734;28;20101;-91
2022/07/17 01:31:07;;;;;;;4.78;2.30;;;10.70;99.90;;;;;;4957165;28;20113;-91
2022/07/17 01:33:32;;;;;;;3.72;2.30;;;10.70;99.90;;;;;;4973959;28;20042;-91
2022/07/17 01:35:58;;;;;;;5.82;2.75;;;10.70;99.90;;;;;;4973687;28;20105;-92
2022/07/17 01:38:23;;;;;;;4.45;2.15;;;10.70;99.90;;;;;;4972884;28;20053;-93
2022/07/17 01:40:51;;;;;;;4.95;2.33;;;10.60;99.90;;;;;;4957383;28;20133;-91
2022/07/17 01:43:17;;;;;;;5.20;2.35;;;10.60;99.90;;;;;;4959707;28;20125;-91
2022/07/17 01:45:42;;;;;;;5.10;2.30;;;10.60;99.90;;;;;;4983696;28;20507;-91
2022/07/17 01:48:08;;;;;;;3.67;2.25;;;10.60;99.90;;;;;;4969124;28;20054;-91
2022/07/17 01:50:34;;;;;;;6.15;2.95;;;10.60;99.90;;;;;;4973396;28;20054;-90
2022/07/17 01:53:00;;;;;;;8.27;2.67;;;10.50;99.90;;;;;;4953752;28;20117;-89
2022/07/17 01:55:25;;;;;;;5.45;2.40;;;10.50;99.90;;;;;;4967783;28;20050;-91
2022/07/17 01:57:51;;;;;;;5.53;2.95;;;10.50;99.90;;;;;;4969328;28;20386;-91
2022/07/17 02:00:17;;;;;;;4.10;2.90;;;10.50;99.90;;;;;;4968934;28;20073;-92
2022/07/17 02:02:44;;;;;;;6.00;3.28;;;10.50;99.90;;;;;;4944033;29;20055;-92
2022/07/17 02:05:10;;;;;;;5.40;4.05;;;10.40;99.90;;;;;;4955327;28;20043;-91
2022/07/17 02:07:39;;;;;;;8.82;4.10;;;10.50;99.90;;;;;;4963629;28;20059;-90
2022/07/17 02:10:06;;;;;;;5.55;4.15;;;10.40;99.90;;;;;;4945605;28;20049;-92
2022/07/17 02:12:32;;;;;;;8.30;4.43;;;10.40;99.90;;;;;;4955914;28;20059;-91
2022/07/17 02:14:57;;;;;;;7.50;4.60;;;10.40;99.90;;;;;;4980531;28;20077;-92
2022/07/17 02:17:23;;;;;;;6.53;3.90;;;10.40;99.90;;;;;;4942540;28;20494;-91
2022/07/17 02:19:48;;;;;;;7.63;3.83;;;10.40;99.90;;;;;;4944496;28;20050;-90
2022/07/17 02:22:14;;;;;;;5.93;4.10;;;10.40;99.90;;;;;;4940633;28;20220;-91
2022/07/17 02:24:40;;;;;;;4.93;4.00;;;10.40;99.90;;;;;;4956168;28;20042;-90
2022/07/17 02:27:05;;;;;;;8.05;5.38;;;10.40;99.90;;;;;;4940747;28;20046;-91
2022/07/17 02:29:31;;;;;;;4.57;3.40;;;10.40;99.90;;;;;;4956225;28;20486;-90
2022/07/17 02:31:57;;;;;;;5.22;3.60;;;10.40;99.90;;;;;;4956380;28;20491;-90
2022/07/17 02:34:22;;;;;;;5.57;3.42;;;10.40;99.90;;;;;;4924082;28;20055;-91
2022/07/17 02:36:48;;;;;;;6.93;3.95;;;10.40;99.90;;;;;;4940319;28;20043;-91
2022/07/17 02:39:13;;;;;;;6.40;3.50;;;10.40;99.90;;;;;;4940083;28;20158;-90
2022/07/17 02:41:39;;;;;;;8.10;4.15;;;10.40;99.90;;;;;;4955900;28;20368;-89
2022/07/17 02:44:05;;;;;;;8.23;4.05;;;10.40;99.90;;;;;;4968170;28;20057;-89
2022/07/17 02:46:30;;;;;;;7.25;4.18;;;10.30;99.90;;;;;;4978539;28;20051;-89
2022/07/17 02:48:56;;;;;;;10.05;3.85;;;10.30;99.90;;;;;;4978855;28;20050;-89
2022/07/17 02:51:22;;;;;;;8.13;4.40;;;10.40;99.90;;;;;;4941382;29;20050;-90
2022/07/17 02:53:47;;;;;;;7.18;3.85;;;10.30;99.90;;;;;;4973730;28;20057;-91
2022/07/17 02:56:13;;;;;;;10.27;4.03;;;10.30;99.90;;;;;;4954380;28;20039;-90
2022/07/17 02:58:39;;;;;;;7.22;3.90;;;10.30;99.90;;;;;;4961920;28;20037;-91
2022/07/17 03:01:04;;;;;;;5.63;3.55;;;10.30;99.90;;;;;;4945735;28;20160;-91
2022/07/17 03:03:30;;;;;;;9.30;3.60;;;10.20;99.90;;;;;;4943035;28;20082;-91
2022/07/17 03:05:56;;;;;;;5.40;3.13;;;10.20;99.90;;;;;;4941808;28;20144;-91
2022/07/17 03:08:21;;;;;;;8.00;3.20;;;10.20;99.90;;;;;;4941122;28;20054;-91
2022/07/17 03:10:48;;;;;;;6.60;3.10;;;10.20;99.90;;;;;;4941175;28;20128;-90
2022/07/17 03:13:14;;;;;;;6.05;3.22;;;10.10;99.90;;;;;;4957177;28;20108;-88
2022/07/17 03:15:39;;;;;;;7.60;3.42;;;10.20;99.90;;;;;;4961954;28;20046;-90
2022/07/17 03:18:05;;;;;;;4.75;3.15;;;10.10;99.90;;;;;;4956870;28;20113;-90
2022/07/17 03:20:31;;;;;;;5.68;3.35;;;10.10;99.90;;;;;;4967196;28;20046;-89
2022/07/17 03:22:56;;;;;;;6.45;2.88;;;10.00;99.90;;;;;;4958384;28;20046;-90
2022/07/17 03:25:22;;;;;;;6.15;2.97;;;10.00;99.90;;;;;;4955936;28;20043;-90
2022/07/17 03:27:48;;;;;;;6.13;3.05;;;10.00;99.90;;;;;;4955777;28;20050;-90
2022/07/17 03:30:13;;;;;;;4.60;2.75;;;9.90;99.90;;;;;;4972349;28;20047;-91
2022/07/17 03:32:39;;;;;;;6.28;3.22;;;9.90;99.90;;;;;;4971840;28;20506;-90
2022/07/17 03:35:05;;;;;;;5.40;2.65;;;9.90;99.90;;;;;;4971936;28;20047;-89
2022/07/17 03:37:31;;;;;;;6.35;2.70;;;9.90;99.90;;;;;;4954854;28;20042;-90
2022/07/17 03:39:57;;;;;;;5.28;2.53;;;9.90;99.90;;;;;;4956261;28;20042;-89
2022/07/17 03:42:22;;;;;;;3.53;3.10;;;9.90;99.90;;;;;;4955261;28;20051;-90
2022/07/17 03:44:48;;;;;;;3.75;3.03;;;9.90;99.90;;;;;;4955438;28;20490;-91
2022/07/17 03:47:13;;;;;;;6.80;3.85;;;9.90;99.90;;;;;;4956975;28;20444;-89
2022/07/17 03:49:39;;;;;;;5.75;3.30;;;9.90;99.90;;;;;;4955648;28;20046;-89
2022/07/17 03:52:05;;;;;;;4.80;3.10;;;9.90;99.90;;;;;;4940013;28;20133;-90
2022/07/17 03:54:31;;;;;;;5.25;2.90;;;9.90;99.90;;;;;;4954851;28;20058;-90
2022/07/17 03:56:57;;;;;;;5.70;2.90;;;9.90;99.90;;;;;;4955000;28;20039;-90
2022/07/17 03:59:23;;;;;;;5.60;2.97;;;9.90;99.90;;;;;;4955275;28;20046;-90
2022/07/17 04:01:48;;;;;;;4.75;3.03;;;9.90;99.90;;;;;;4955639;28;20054;-89
2022/07/17 04:04:14;;;;;;;7.85;3.10;;;9.90;99.90;;;;;;4955424;28;20042;-91
2022/07/17 04:06:39;;;;;;;5.55;3.00;;;9.90;99.90;;;;;;4954828;28;20043;-89
2022/07/17 04:09:05;;;;;;;6.20;3.10;;;9.90;99.90;;;;;;4955446;28;20046;-90
2022/07/17 04:11:31;;;;;;;4.85;3.00;;;10.00;99.90;;;;;;4971134;28;20061;-90
2022/07/17 04:13:56;;;;;;;6.35;3.30;;;10.00;99.90;;;;;;4971211;28;20038;-90
2022/07/17 04:16:22;;;;;;;5.00;3.08;;;10.10;99.90;;;;;;4970789;28;20054;-87
2022/07/17 04:18:48;;;;;;;7.22;3.45;;;10.20;99.90;;;;;;4955197;28;20054;-90
2022/07/17 04:21:13;;;;;;;4.50;3.08;;;10.30;99.90;;;;;;4968798;28;20109;-90
2022/07/17 04:23:39;;;;;;;5.55;3.38;;;10.30;99.90;;;;;;4970865;28;20039;-90
2022/07/17 04:26:06;;;;;;;3.40;3.05;;;10.50;99.90;;;;;;4939206;28;20403;-89
2022/07/17 04:28:32;;;;;;;7.40;3.10;;;10.50;99.90;;;;;;4954822;28;20128;-89
2022/07/17 04:30:58;;;;;;;4.97;2.70;;;10.60;99.90;;;;;;4954782;28;20086;-89
2022/07/17 04:33:23;;;;;;;4.63;3.05;;;10.70;99.90;;;;;;4954965;28;20399;-89
2022/07/17 04:35:49;;;;;;;4.22;2.50;;;10.80;99.90;;;;;;4954803;28;20047;-90
2022/07/17 04:38:15;;;;;;;7.00;3.25;;;10.90;99.90;;;;;;4970883;28;20045;-90
2022/07/17 04:40:41;;;;;;;5.72;2.60;;;11.00;99.90;;;;;;4957754;28;20047;-89
2022/07/17 04:43:06;;;;;;;6.03;2.53;;;11.10;99.90;;;;;;4974410;28;20357;-90
2022/07/17 04:45:32;;;;;;;4.05;2.90;;;11.20;99.90;;;;;;4957876;28;20387;-89
2022/07/17 04:47:58;;;;;;;6.15;3.20;;;11.20;99.90;;;;;;4958343;28;20403;-90
2022/07/17 04:50:23;;;;;;;6.05;2.50;;;11.30;99.90;;;;;;4957945;28;20059;-89
2022/07/17 04:52:49;;;;;;;3.60;2.60;;;11.40;99.90;;;;;;4957920;28;20085;-90
2022/07/17 04:55:15;;;;;;;5.03;2.50;;;11.50;99.90;;;;;;4960355;28;20050;-90
2022/07/17 04:57:40;;;;;;;6.80;2.70;;;11.60;99.90;;;;;;4941785;28;20051;-90
2022/07/17 05:00:07;;;;;;;7.18;2.50;;;11.70;99.90;;;;;;4974213;28;20058;-89
2022/07/17 05:02:33;;;;;;;4.85;2.33;;;11.80;99.90;;;;;;4957725;28;20575;-90
2022/07/17 05:04:58;;;;;;;5.82;2.70;;;11.90;99.90;;;;;;4957902;28;20126;-89
2022/07/17 05:07:24;;;;;;;8.85;2.78;;;11.90;99.90;;;;;;4957799;28;20059;-90
2022/07/17 05:09:50;;;;;;;5.18;3.55;;;12.00;99.90;;;;;;4957929;28;20054;-90
2022/07/17 05:12:15;;;;;;;4.40;1.95;;;12.00;99.90;;;;;;4973874;28;20501;-90
2022/07/17 05:14:41;;;;;;;4.63;2.42;;;12.10;99.90;;;;;;4957435;28;20126;-90
2022/07/17 05:17:07;;;;;;;5.90;2.47;;;12.10;99.90;;;;;;4925629;28;20082;-90
2022/07/17 05:19:32;;;;;;;5.03;2.22;;;12.20;99.90;;;;;;4957602;28;20043;-89
2022/07/17 05:21:59;;;;;;;4.38;2.10;;;12.30;99.90;;;;;;4925533;28;20082;-90
2022/07/17 05:24:24;;;;;;;4.55;2.30;;;12.20;99.90;;;;;;4941671;28;20114;-89
2022/07/17 05:26:50;;;;;;;6.75;2.33;;;12.40;99.90;;;;;;4941223;28;20129;-90
2022/07/17 05:29:15;;;;;;;3.53;2.08;;;12.30;99.90;;;;;;4943617;28;20077;-89
2022/07/17 05:31:41;;;;;;;2.55;1.70;;;12.40;99.90;;;;;;4957651;28;20577;-90
2022/07/17 05:34:07;;;;;;;3.78;1.92;;;12.50;99.90;;;;;;4941399;28;20050;-90
2022/07/17 05:36:32;;;;;;;4.68;1.98;;;12.50;99.90;;;;;;4956975;28;20038;-88
2022/07/17 05:38:58;;;;;;;3.80;1.88;;;12.60;99.90;;;;;;4957324;28;20085;-90
2022/07/17 05:41:24;;;;;;;3.88;2.00;;;12.70;99.90;;;;;;4940998;28;20047;-89
2022/07/17 05:43:49;;;;;;;5.70;1.80;;;12.80;99.90;;;;;;4941257;28;20069;-89
2022/07/17 05:46:15;;;;;;;5.38;1.60;;;12.80;99.90;;;;;;4957251;28;20051;-90
2022/07/17 05:48:41;;;;;;;4.30;1.83;;;12.90;99.90;;;;;;4970070;28;20046;-90
2022/07/17 05:51:06;;;;;;;3.08;1.67;;;13.00;99.90;;;;;;4963583;28;20043;-89
2022/07/17 05:53:32;;;;;;;3.92;1.50;;;13.00;99.90;;;;;;4927347;28;20121;-89
2022/07/17 05:55:58;;;;;;;5.07;1.60;;;13.00;99.90;;;;;;4946997;28;20046;-89
2022/07/17 05:58:24;;;;;;;4.78;1.75;;;13.10;99.90;;;;;;4914053;28;20055;-89
2022/07/17 06:00:50;;;;;;;5.47;2.00;;;13.20;99.90;;;;;;4943774;28;20058;-90
2022/07/17 06:03:15;;;;;;;4.15;1.65;;;13.30;99.90;;;;;;4959700;28;20054;-89
2022/07/17 06:05:41;;;;;;;3.47;1.60;;;13.40;99.90;;;;;;4940376;28;20106;-89
2022/07/17 06:08:07;;;;;;;1.95;1.20;;;13.70;99.90;;;;;;4961921;28;20067;-90
2022/07/17 06:10:33;;;;;;;4.57;1.58;;;13.90;99.90;;;;;;4962752;28;20074;-89
2022/07/17 06:12:58;;;;;;;4.60;1.55;;;14.10;99.90;;;;;;4962079;28;20114;-89
2022/07/17 06:15:24;;;;;;;3.58;1.45;;;15.00;99.90;;;;;;4964112;28;20110;-89
2022/07/17 06:17:50;;;;;;;3.28;1.35;;;15.80;99.90;;;;;;4974607;28;20047;-90
2022/07/17 06:20:16;;;;;;;2.28;1.10;;;16.30;99.90;;;;;;4969190;28;20042;-90
2022/07/17 06:22:41;;;;;;;3.22;1.25;;;17.30;99.90;;;;;;4963946;28;20043;-89
2022/07/17 06:25:08;;;;;;;3.58;1.23;;;17.90;99.90;;;;;;4959005;28;20050;-88
2022/07/17 06:27:33;;;;;;;4.15;1.10;;;18.80;99.90;;;;;;4958172;28;20430;-89
2022/07/17 06:29:59;;;;;;;3.05;1.15;;;19.20;99.90;;;;;;4956910;28;20175;-89
2022/07/17 06:32:25;;;;;;;2.20;1.27;;;19.30;99.90;;;;;;4957647;28;20046;-91
2022/07/17 06:34:50;;;;;;;3.85;1.20;;;19.80;99.90;;;;;;4956826;28;20035;-90
2022/07/17 06:37:16;;;;;;;2.72;1.40;;;20.60;99.90;;;;;;4957011;28;20462;-90
2022/07/17 06:39:42;;;;;;;2.33;1.40;;;20.90;99.90;;;;;;4957100;28;20538;-90
2022/07/17 06:42:07;;;;;;;2.83;1.10;;;21.30;99.90;;;;;;4956758;28;20034;-90
2022/07/17 06:44:34;;;;;;;4.10;1.17;;;20.80;99.90;;;;;;4956800;28;20057;-90
2022/07/17 06:46:59;;;;;;;4.30;1.00;;;21.00;99.90;;;;;;4972563;28;20059;-90
2022/07/17 06:49:25;;;;;;;3.97;1.20;;;22.10;99.90;;;;;;4956450;28;20050;-90
2022/07/17 06:51:51;;;;;;;4.03;1.08;;;21.70;99.90;;;;;;4956577;28;20121;-90
2022/07/17 06:54:16;;;;;;;2.58;0.90;;;21.20;99.90;;;;;;4956782;28;20055;-91
2022/07/17 06:56:42;;;;;;;3.25;1.30;;;20.90;99.90;;;;;;4955964;28;20385;-91
2022/07/17 06:59:08;;;;;;;2.83;1.30;;;20.90;99.90;;;;;;4955768;28;20486;-90
2022/07/17 07:01:37;;;;;;;1.45;0.95;;;21.00;99.90;;;;;;4955702;28;20050;-91
2022/07/17 07:04:03;;;;;;;2.80;1.00;;;20.40;99.90;;;;;;4971842;28;20535;-90
2022/07/17 07:06:29;;;;;;;1.08;0.90;;;20.20;99.90;;;;;;4956385;28;20054;-90
2022/07/17 07:08:55;;;;;;;2.75;1.40;;;19.80;99.90;;;;;;4939931;28;20414;-91
2022/07/17 07:11:21;;;;;;;4.07;1.10;;;19.60;99.90;;;;;;4956192;28;20046;-91
2022/07/17 07:13:46;;;;;;;2.58;1.25;;;19.50;99.90;;;;;;4939686;28;20079;-90
2022/07/17 07:16:12;;;;;;;6.07;1.30;;;19.10;99.90;;;;;;4971703;28;20059;-91
2022/07/17 07:18:38;;;;;;;3.33;1.20;;;19.10;99.90;;;;;;4956123;28;20061;-90
2022/07/17 07:21:03;;;;;;;3.80;0.80;;;18.60;99.90;;;;;;4973536;28;20545;-90
2022/07/17 07:23:29;;;;;;;2.65;1.00;;;18.50;99.90;;;;;;4971822;28;20081;-90
2022/07/17 07:25:55;;;;;;;2.70;1.10;;;18.30;99.90;;;;;;4971610;28;20054;-90
2022/07/17 07:28:20;;;;;;;2.05;1.20;;;18.10;99.90;;;;;;4955765;28;20034;-90
2022/07/17 07:30:46;;;;;;;3.15;1.20;;;18.00;99.90;;;;;;4973644;28;20124;-90
2022/07/17 07:33:12;;;;;;;4.78;0.90;;;17.90;99.90;;;;;;4939093;28;20034;-90
2022/07/17 07:35:37;;;;;;;5.00;1.27;;;18.00;99.90;;;;;;4955683;28;20038;-90
2022/07/17 07:38:03;;;;;;;4.75;1.40;;;18.10;99.90;;;;;;4971390;28;20125;-89
2022/07/17 07:40:29;;;;;;;6.22;1.42;;;18.00;99.90;;;;;;4940050;28;20038;-89
2022/07/17 07:42:54;;;;;;;3.92;1.20;;;17.80;99.90;;;;;;4955168;28;20154;-89
2022/07/17 07:45:20;;;;;;;3.55;1.50;;;17.90;99.90;;;;;;4955381;28;20058;-89
2022/07/17 07:47:47;;;;;;;5.03;1.17;;;18.00;99.90;;;;;;4955257;28;20059;-90
2022/07/17 07:50:13;;;;;;;1.73;0.80;;;18.10;99.90;;;;;;4990842;28;20106;-91
2022/07/17 07:52:39;;;;;;;2.80;1.15;;;18.20;99.90;;;;;;4973103;28;20506;-93
2022/07/17 07:55:06;;;;;;;4.22;1.50;;;18.30;99.90;;;;;;4952818;28;20060;-95
2022/07/17 07:57:34;;;;;;;7.38;1.50;;;18.40;99.90;;;;;;4966837;28;20071;-93
2022/07/17 08:00:00;;;;;;;5.53;1.73;;;18.50;99.90;;;;;;4978775;28;20710;-94
2022/07/17 08:02:26;;;;;;;3.17;1.13;;;18.70;99.90;;;;;;4972873;28;20122;-95
2022/07/17 08:04:51;;;;;;;2.47;1.00;;;19.10;99.90;;;;;;4972964;28;20097;-95
2022/07/17 08:07:17;;;;;;;2.95;1.13;;;19.20;99.90;;;;;;4985013;28;20047;-94
2022/07/17 08:09:43;;;;;;;4.55;1.30;;;19.10;99.90;;;;;;4973037;28;20047;-94
2022/07/17 08:12:08;;;;;;;3.55;1.17;;;19.20;99.90;;;;;;4979319;28;20051;-94
2022/07/17 08:14:42;;;;;;;4.72;1.38;;;19.20;99.90;;;;;;4981580;28;20046;-96
2022/07/17 08:17:07;;;;;;;7.18;1.20;;;19.10;99.90;;;;;;4967506;28;20047;-93
2022/07/17 08:19:33;;;;;;;4.50;1.20;;;20.30;99.90;;;;;;4975498;28;20039;-96
2022/07/17 08:22:29;;;;;;;;;;;;;;;;;;;;;
2022/07/17 08:25:13;;;;;;;2.75;1.00;;;19.70;99.90;;;;;;4990179;28;20054;-92
2022/07/17 08:27:42;;;;;;;6.18;1.20;;;19.80;99.90;;;;;;4981346;28;20081;-91
2022/07/17 08:30:09;;;;;;;5.53;1.67;;;19.50;99.90;;;;;;4956936;28;20138;-94
2022/07/17 08:32:37;;;;;;;3.83;1.20;;;20.30;99.90;;;;;;4977792;28;20038;-95
2022/07/17 08:35:06;;;;;;;4.10;1.00;;;20.50;99.90;;;;;;4975942;28;20490;-95
2022/07/17 08:37:54;;;;;;;6.60;1.10;;;20.70;99.90;;;;;;4978374;28;20042;-94
2022/07/17 08:40:27;;;;;;;3.38;1.02;;;21.70;99.90;;;;;;4972526;28;20181;-91
2022/07/17 08:42:56;;;;;;;4.55;1.00;;;22.10;99.90;;;;;;4964861;28;20097;-91
2022/07/17 08:45:22;;;;;;;4.60;1.10;;;22.70;99.90;;;;;;4954228;28;20042;-91
2022/07/17 08:47:48;;;;;;;2.15;0.93;;;23.10;99.90;;;;;;4953510;28;20053;-93
2022/07/17 08:50:14;;;;;;;3.28;1.15;;;23.20;99.90;;;;;;4973705;28;20498;-96
2022/07/17 08:52:41;;;;;;;6.50;1.10;;;22.60;99.90;;;;;;4959645;28;20046;-95
2022/07/17 08:55:13;;;;;;;4.70;1.13;;;22.40;99.90;;;;;;4969319;28;20065;-93
2022/07/17 08:57:43;;;;;;;3.25;0.90;;;23.20;99.90;;;;;;4964735;28;20042;-94
2022/07/17 09:00:27;;;;;;;1.88;1.00;;;23.80;99.90;;;;;;4961609;28;20050;-94
2022/07/17 09:02:56;;;;;;;2.95;1.00;;;23.80;99.90;;;;;;4945981;28;20082;-93
2022/07/17 09:05:23;;;;;;;1.95;0.88;;;24.50;99.90;;;;;;4974603;28;20502;-94
2022/07/17 09:07:52;;;;;;;3.33;1.02;;;24.30;99.90;;;;;;4972518;28;20046;-94
2022/07/17 09:10:18;;;;;;;1.95;0.95;;;24.00;99.90;;;;;;4968266;28;20505;-94
2022/07/17 09:12:56;;;;;;;;;;;;;;;;;;;;;
2022/07/17 09:15:24;;;;;;;5.18;1.20;;;23.30;99.90;;;;;;4969762;28;20484;-93
2022/07/17 09:17:51;;;;;;;2.65;1.10;;;23.20;99.90;;;;;;4943279;28;20080;-93
2022/07/17 09:20:19;;;;;;;6.45;1.13;;;23.70;99.90;;;;;;4971035;28;20042;-94
2022/07/17 09:22:54;;;;;;;2.90;0.90;;;24.40;99.90;;;;;;4974783;28;20058;-93
2022/07/17 09:25:30;;;;;;;2.47;0.85;;;25.00;99.90;;;;;;4955082;28;20100;-95
2022/07/17 09:27:56;;;;;;;3.75;0.95;;;25.00;99.90;;;;;;4974027;28;20060;-95
2022/07/17 09:30:22;;;;;;;3.78;1.10;;;25.00;99.90;;;;;;4970540;28;20073;-92
2022/07/17 09:32:53;;;;;;;2.85;1.00;;;25.00;99.90;;;;;;4968009;28;20085;-93
2022/07/17 09:35:21;;;;;;;2.30;1.10;;;24.80;99.90;;;;;;4975630;28;20088;-93
2022/07/17 09:37:51;;;;;;;2.08;1.00;;;25.20;99.90;;;;;;4975051;28;20475;-96
2022/07/17 09:43:06;;;;;;;5.28;1.10;;;24.90;99.90;;;;;;4997894;28;20042;-94
2022/07/17 09:45:37;;;;;;;2.75;1.08;;;25.00;99.90;;;;;;4984157;28;20042;-93
2022/07/17 09:48:04;;;;;;;4.07;1.33;;;24.50;99.90;;;;;;4997140;28;20033;-92
2022/07/17 09:50:29;;;;;;;4.45;1.25;;;24.80;99.90;;;;;;4977302;28;20057;-95
2022/07/17 09:52:59;;;;;;;4.07;1.50;;;25.50;99.90;;;;;;4987312;28;20097;-93
2022/07/17 09:55:29;;;;;;;4.30;1.23;;;24.70;99.00;;;;;;4982602;28;20057;-91
2022/07/17 09:57:55;;;;;;;2.95;1.02;;;24.70;99.60;;;;;;4961566;28;20051;-94
2022/07/17 10:00:21;;;;;;;2.25;1.17;;;25.30;99.90;;;;;;4975297;28;20482;-93
2022/07/17 10:02:47;;;;;;;3.63;1.30;;;25.00;99.90;;;;;;4976118;28;20046;-95
2022/07/17 10:05:16;;;;;;;3.20;1.25;;;25.10;99.90;;;;;;4956415;28;20047;-94
2022/07/17 10:07:45;;;;;;;3.10;1.00;;;24.90;99.90;;;;;;4975858;28;20058;-93
2022/07/17 10:10:11;;;;;;;2.85;1.30;;;24.70;99.90;;;;;;4961255;28;20063;-92
2022/07/17 10:12:37;;;;;;;1.92;1.08;;;25.10;99.90;;;;;;4934331;28;20050;-90
2022/07/17 10:15:04;;;;;;;2.10;1.48;;;25.80;99.40;;;;;;4944011;28;20066;-92
2022/07/17 10:17:30;;;;;;;3.47;1.20;;;25.90;99.90;;;;;;4975556;28;20055;-90
2022/07/17 10:19:58;;;;;;;2.53;1.20;;;25.70;99.20;;;;;;4974657;28;20067;-89
2022/07/17 10:22:24;;;;;;;1.98;1.10;;;25.30;99.10;;;;;;4972543;28;20053;-91
2022/07/17 10:24:52;;;;;;;3.63;1.20;;;26.70;98.00;;;;;;4958203;28;20043;-91
2022/07/17 10:27:22;;;;;;;2.58;1.17;;;26.00;98.10;;;;;;4972160;28;20130;-92
2022/07/17 10:30:04;;;;;;;1.52;1.10;;;25.20;99.50;;;;;;4977559;28;20047;-93
2022/07/17 10:32:30;;;;;;;2.67;1.23;;;25.60;98.70;;;;;;4958656;28;20086;-94
2022/07/17 10:35:01;;;;;;;1.77;1.30;;;24.80;98.90;;;;;;4942047;28;20529;-94
2022/07/17 10:37:37;;;;;;;3.10;1.23;;;25.30;98.80;;;;;;4950195;28;20045;-91
2022/07/17 10:40:17;;;;;;;3.58;1.10;;;25.20;99.00;;;;;;4971275;28;20043;-92
2022/07/17 10:43:01;;;;;;;3.55;1.30;;;25.40;99.10;;;;;;4984728;28;20078;-93
2022/07/17 10:45:32;;;;;;;1.30;1.00;;;25.60;99.90;;;;;;4948925;28;20149;-95
2022/07/17 10:48:05;;;;;;;2.70;1.10;;;25.30;99.70;;;;;;4969415;28;20068;-94
2022/07/17 10:50:38;;;;;;;2.67;1.17;;;25.80;99.50;;;;;;4964993;28;20052;-95
2022/07/17 10:53:08;;;;;;;;;;;25.80;98.80;;;;;;4974117;28;20053;-95
2022/07/17 10:56:30;;;;;;;2.97;1.50;;;24.60;98.30;;;;;;4952500;28;20418;-94
2022/07/17 10:59:01;;;;;;;3.03;1.40;;;25.20;99.00;;;;;;4962531;28;20080;-92
2022/07/17 11:01:27;;;;;;;2.22;1.25;;;25.80;99.00;;;;;;4952810;29;20400;-92
2022/07/17 11:03:57;;;;;;;2.50;1.10;;;26.80;98.30;;;;;;4954000;28;20051;-91
2022/07/17 11:06:30;;;;;;;2.58;1.27;;;27.10;97.30;;;;;;4952558;29;20074;-93
2022/07/17 11:09:04;;;;;;;3.40;1.20;;;25.60;98.80;;;;;;4950367;28;20055;-92
2022/07/17 11:11:41;;;;;;;2.72;1.25;;;25.10;99.40;;;;;;4949627;28;20130;-92
2022/07/17 11:14:27;;;;;;;1.98;1.30;;;25.50;99.80;;;;;;4973245;28;20054;-93
2022/07/17 11:16:54;;;;;;;1.92;1.20;;;25.80;99.20;;;;;;4975014;28;20047;-93
2022/07/17 11:19:25;;;;;;;3.25;1.17;;;25.70;99.10;;;;;;4962861;28;20046;-93
2022/07/17 11:22:01;;;;;;;2.78;1.20;;;25.50;99.20;;;;;;4959044;28;20057;-94
2022/07/17 11:24:53;;;;;;;2.47;1.38;;;25.20;99.40;;;;;;4946027;28;20102;-94
2022/07/17 11:27:30;;;;;;;4.18;1.25;;;25.60;99.00;;;;;;4925616;28;20073;-92
2022/07/17 11:30:05;;;;;;;3.47;1.40;;;24.90;99.70;;;;;;4970904;28;20106;-93
2022/07/17 11:32:35;;;;;;;3.17;1.20;;;24.70;99.60;;;;;;4973529;28;20125;-92
2022/07/17 11:35:00;;;;;;;2.65;1.20;;;23.90;99.90;;;;;;4972927;28;20049;-94
2022/07/17 11:37:29;;;;;;;1.55;1.20;;;24.30;99.90;;;;;;4968565;28;20046;-94
2022/07/17 11:40:03;;;;;;;2.75;1.35;;;24.70;99.60;;;;;;4968021;28;20070;-92
2022/07/17 11:42:34;;;;;;;2.70;1.55;;;24.10;99.90;;;;;;4972316;28;20042;-93
2022/07/17 11:45:00;;;;;;;2.55;1.42;;;24.10;99.90;;;;;;4950986;28;20498;-94
2022/07/17 11:47:39;;;;;;;2.65;1.40;;;24.10;99.90;;;;;;4967651;28;20038;-93
2022/07/17 11:50:05;;;;;;;3.63;1.35;;;23.60;99.90;;;;;;4960749;28;20515;-89
2022/07/17 11:52:43;;;;;;;4.75;1.40;;;24.40;99.90;;;;;;4981783;28;20054;-95
2022/07/17 11:55:16;;;;;;;3.78;1.30;;;24.30;99.90;;;;;;4953627;28;20059;-94
2022/07/17 11:57:52;;;;;;;2.40;1.30;;;23.90;99.90;;;;;;4971684;28;20051;-87
2022/07/17 12:00:22;;;;;;;1.48;1.20;;;24.00;99.90;;;;;;4966399;28;20494;-93
2022/07/17 12:02:58;;;;;;;2.65;1.40;;;23.90;99.90;;;;;;4967800;28;20394;-90
2022/07/17 12:05:42;;;;;;;2.10;1.25;;;24.30;99.90;;;;;;4979310;28;20082;-91
2022/07/17 12:08:08;;;;;;;;;;;24.10;99.90;;;;;;4965064;28;20129;-91
2022/07/17 12:10:36;;;;;;;3.65;1.50;;;24.40;99.90;;;;;;4954490;28;20386;-92
2022/07/17 12:13:09;;;;;;;3.28;1.48;;;24.30;99.90;;;;;;4970870;28;20050;-93
2022/07/17 12:15:57;;;;;;;4.50;1.70;;;24.60;99.90;;;;;;4965784;28;20064;-92
2022/07/17 12:18:28;;;;;;;5.72;2.00;;;24.80;99.40;;;;;;4962546;28;20042;-92
2022/07/17 12:21:00;;;;;;;2.35;1.55;;;24.80;99.30;;;;;;4969790;28;20038;-93
2022/07/17 12:23:35;;;;;;;2.53;2.13;;;24.20;97.70;;;;;;4984729;28;20141;-93
2022/07/17 12:26:10;;;;;;;2.45;1.75;;;24.50;99.60;;;;;;4977753;28;20082;-92
2022/07/17 12:28:40;;;;;;;2.22;1.45;;;24.10;99.30;;;;;;4971023;28;20481;-92
2022/07/17 12:31:10;;;;;;;3.90;1.60;;;25.60;99.80;;;;;;4947776;28;20113;-89
2022/07/17 12:33:36;;;;;;;4.82;1.50;;;24.80;98.90;;;;;;4938961;28;20043;-89
2022/07/17 12:36:02;;;;;;;2.38;1.60;;;24.70;99.50;;;;;;4958691;28;20053;-88
2022/07/17 12:38:28;;;;;;;2.22;1.73;;;24.90;98.60;;;;;;4974479;28;20039;-88
2022/07/17 12:40:53;;;;;;;2.63;1.48;;;24.90;98.90;;;;;;4959388;28;20101;-89
2022/07/17 12:43:19;;;;;;;2.53;1.77;;;25.10;99.10;;;;;;4959043;28;20035;-88
2022/07/17 12:45:45;;;;;;;3.30;1.80;;;25.10;99.10;;;;;;4953275;28;20156;-88
2022/07/17 12:48:10;;;;;;;2.88;1.65;;;24.80;98.60;;;;;;4963288;28;20046;-89
2022/07/17 12:50:37;;;;;;;3.47;1.85;;;24.70;99.60;;;;;;4987532;28;20050;-89
2022/07/17 12:53:03;;;;;;;2.80;1.70;;;25.00;99.40;;;;;;4943352;28;20046;-88
2022/07/17 12:55:28;;;;;;;4.15;1.90;;;25.10;99.00;;;;;;4960250;28;20101;-88